Time;durP1;ratioP1;P1;durP2;ratioP2;P2;SDS_P1;SDS_P2;PMS_P1;PMS_P2;Temp;Humidity;BMP_temperature;BMP_pressure;BME280_temperature;BME280_humidity;BME280_pressure;Samples;Min_cycle;Max_cycle;Signal;HPM_P1;HPM_P2
2022/05/06 00:09:52;;;;;;;10.30;6.80;;;14.00;98.70;;;;;;21010050;28;20745;-66
2022/05/06 00:19:54;;;;;;;10.60;6.67;;;13.90;98.80;;;;;;21015409;28;20760;-68
2022/05/06 00:29:56;;;;;;;10.67;7.10;;;13.80;98.70;;;;;;21006872;28;20251;-66
2022/05/06 00:39:59;;;;;;;9.37;6.70;;;13.70;98.80;;;;;;21006014;28;20213;-68
2022/05/06 00:50:03;;;;;;;7.23;6.00;;;13.70;98.90;;;;;;21004785;28;20231;-65
2022/05/06 01:00:17;;;;;;;7.77;5.80;;;13.70;99.00;;;;;;21004196;28;20204;-67
2022/05/06 01:10:21;;;;;;;10.37;6.50;;;13.60;98.90;;;;;;21001593;28;20232;-68
2022/05/06 01:20:24;;;;;;;11.27;6.10;;;13.60;98.90;;;;;;21002182;28;20240;-66
2022/05/06 01:30:42;;;;;;;13.90;6.30;;;13.50;98.90;;;;;;21001733;28;20239;-65
2022/05/06 01:40:47;;;;;;;9.33;6.27;;;13.50;99.00;;;;;;21000758;28;20232;-66
2022/05/06 01:50:49;;;;;;;13.23;6.33;;;13.40;98.90;;;;;;20999856;28;20232;-67
2022/05/06 02:00:51;;;;;;;8.83;6.07;;;13.30;98.80;;;;;;20999375;28;20247;-67
2022/05/06 02:10:53;;;;;;;9.30;6.50;;;13.30;98.50;;;;;;20998146;28;20235;-65
2022/05/06 02:20:58;;;;;;;8.57;6.20;;;13.20;98.80;;;;;;20996902;28;20756;-66
2022/05/06 02:41:28;;;;;;;11.67;6.40;;;13.10;98.60;;;;;;20996363;28;20205;-69
2022/05/06 02:51:30;;;;;;;9.03;6.07;;;13.00;98.50;;;;;;20995687;28;20235;-64
2022/05/06 03:01:31;;;;;;;12.67;6.20;;;12.90;98.50;;;;;;20995593;28;20207;-64
2022/05/06 03:11:34;;;;;;;9.53;5.93;;;12.90;98.60;;;;;;20994852;28;20236;-65
2022/05/06 03:21:36;;;;;;;9.93;6.00;;;12.90;98.40;;;;;;20994363;28;20238;-66
2022/05/06 03:31:38;;;;;;;11.30;5.57;;;12.80;98.10;;;;;;21000744;28;20227;-64
2022/05/06 03:41:40;;;;;;;8.17;5.60;;;12.80;97.90;;;;;;21019455;28;20212;-71
2022/05/06 03:51:45;;;;;;;7.97;5.70;;;12.70;97.50;;;;;;21009730;28;20580;-68
2022/05/06 04:01:47;;;;;;;11.97;6.50;;;12.70;97.50;;;;;;21008709;28;20268;-67
2022/05/06 04:11:50;;;;;;;12.07;6.73;;;12.60;97.30;;;;;;21008897;28;20243;-72
2022/05/06 04:32:11;;;;;;;15.27;7.77;;;12.50;97.10;;;;;;21006709;28;21158;-66
2022/05/06 04:42:15;;;;;;;13.97;6.80;;;12.60;96.90;;;;;;21005819;28;20652;-64
2022/05/06 04:52:17;;;;;;;10.77;7.50;;;12.70;96.70;;;;;;21004047;28;20237;-66
2022/05/06 05:02:19;;;;;;;19.90;6.83;;;12.70;96.50;;;;;;21003392;28;20216;-68
2022/05/06 05:12:24;;;;;;;8.50;5.50;;;12.80;96.10;;;;;;21003103;28;20332;-66
2022/05/06 05:22:26;;;;;;;7.43;5.07;;;12.90;95.20;;;;;;21000615;28;20232;-65
2022/05/06 05:32:27;;;;;;;10.53;5.87;;;12.80;95.30;;;;;;21000736;28;20246;-66
2022/05/06 05:42:29;;;;;;;10.70;5.07;;;12.90;95.10;;;;;;20999544;28;20210;-63
2022/05/06 05:52:31;;;;;;;9.60;5.23;;;12.80;94.40;;;;;;20999111;28;20244;-68
2022/05/06 06:02:33;;;;;;;10.17;6.60;;;12.90;94.40;;;;;;20997158;28;20666;-67
2022/05/06 06:12:35;;;;;;;14.07;7.73;;;12.90;94.00;;;;;;20996285;28;20238;-70
2022/05/06 06:22:37;;;;;;;10.33;5.53;;;13.10;94.00;;;;;;20995432;28;20646;-69
2022/05/06 06:32:38;;;;;;;12.37;6.57;;;13.20;93.50;;;;;;20995725;28;20638;-67
2022/05/06 06:42:42;;;;;;;11.40;6.43;;;13.30;93.20;;;;;;20993103;28;20199;-65
2022/05/06 06:52:44;;;;;;;9.07;5.50;;;13.40;92.70;;;;;;20992606;28;20244;-63
2022/05/06 07:02:46;;;;;;;8.90;5.13;;;13.80;92.40;;;;;;20943979;28;20272;-65
2022/05/06 07:12:47;;;;;;;9.37;5.37;;;14.20;92.10;;;;;;20992399;28;20270;-66
2022/05/06 07:22:49;;;;;;;11.23;5.23;;;14.40;91.50;;;;;;20989821;28;20284;-66
2022/05/06 07:32:51;;;;;;;11.57;6.00;;;14.70;91.10;;;;;;20992628;28;20261;-65
2022/05/06 07:42:52;;;;;;;18.43;5.13;;;14.90;90.50;;;;;;20992232;28;20210;-69
2022/05/06 07:52:55;;;;;;;9.97;4.13;;;15.20;90.00;;;;;;20990817;28;20258;-66
2022/05/06 08:13:17;;;;;;;9.83;3.57;;;16.20;85.80;;;;;;20993956;28;20231;-66
2022/05/06 08:23:23;;;;;;;6.47;2.10;;;16.60;79.60;;;;;;21023396;28;20240;-65
2022/05/06 08:33:26;;;;;;;5.13;2.40;;;17.00;74.50;;;;;;21004725;28;20235;-67
2022/05/06 08:43:28;;;;;;;4.17;2.00;;;17.50;71.00;;;;;;21006487;28;20297;-67
2022/05/06 08:53:36;;;;;;;8.37;4.33;;;17.80;68.60;;;;;;21002355;28;20267;-69
2022/05/06 09:03:40;;;;;;;4.73;2.37;;;17.90;66.60;;;;;;21004095;28;20207;-69
2022/05/06 09:13:58;;;;;;;10.23;4.97;;;17.90;65.40;;;;;;20994719;28;20238;-70
2022/05/06 09:24:15;;;;;;;6.93;2.60;;;18.10;64.50;;;;;;20999143;28;20215;-71
2022/05/06 09:34:17;;;;;;;5.03;2.37;;;18.20;64.00;;;;;;20999255;28;20236;-65
2022/05/06 09:44:22;;;;;;;4.03;2.30;;;18.20;63.00;;;;;;21001225;28;20653;-69
2022/05/06 09:54:31;;;;;;;5.30;2.77;;;18.40;62.20;;;;;;21000113;28;20293;-69
2022/05/06 10:04:36;;;;;;;4.10;2.27;;;18.70;61.20;;;;;;20998494;28;20673;-70
2022/05/06 10:14:40;;;;;;;11.63;3.40;;;18.90;60.00;;;;;;20997266;28;20240;-71
2022/05/06 10:24:53;;;;;;;4.70;2.47;;;19.10;59.30;;;;;;20996854;28;20200;-70
2022/05/06 10:34:55;;;;;;;6.17;1.83;;;19.20;57.90;;;;;;20948528;28;20687;-63
2022/05/06 10:44:57;;;;;;;2.70;2.10;;;19.40;57.50;;;;;;20996543;28;20234;-64
2022/05/06 10:55:03;;;;;;;3.67;1.80;;;19.70;58.40;;;;;;20916434;28;20234;-73
2022/05/06 11:05:14;;;;;;;5.80;3.10;;;19.80;57.80;;;;;;20921797;28;20250;-70
2022/05/06 11:15:17;;;;;;;3.30;1.93;;;20.00;58.60;;;;;;20912122;28;20240;-72
2022/05/06 11:25:21;;;;;;;2.00;1.60;;;20.20;58.40;;;;;;20939487;28;20206;-69
2022/05/06 11:35:29;;;;;;;3.50;1.80;;;20.30;56.60;;;;;;20994529;28;20229;-71
2022/05/06 11:55:52;;;;;;;5.60;1.97;;;20.70;55.00;;;;;;21000027;28;20210;-71
2022/05/06 12:06:08;;;;;;;3.60;1.60;;;20.90;54.70;;;;;;21006503;28;20217;-70
2022/05/06 12:16:13;;;;;;;3.43;1.60;;;20.90;54.60;;;;;;20973626;28;20329;-71
2022/05/06 12:26:29;;;;;;;1.90;1.60;;;21.00;53.80;;;;;;20959208;28;20314;-73
2022/05/06 12:36:32;;;;;;;1.60;1.40;;;21.20;53.10;;;;;;21006131;28;20214;-70
2022/05/06 12:46:34;;;;;;;3.13;1.40;;;21.30;51.90;;;;;;21005302;28;20589;-64
2022/05/06 12:56:40;;;;;;;3.57;1.73;;;21.50;50.70;;;;;;21004264;28;20203;-64
2022/05/06 13:06:42;;;;;;;2.60;1.50;;;21.50;52.70;;;;;;21012736;28;20232;-64
2022/05/06 13:16:43;;;;;;;5.00;2.10;;;21.70;50.90;;;;;;21007669;28;20231;-64
2022/05/06 13:26:46;;;;;;;4.60;1.30;;;21.80;50.00;;;;;;20962406;28;20228;-64
2022/05/06 13:36:48;;;;;;;3.37;1.50;;;21.80;49.80;;;;;;20918769;28;20212;-66
2022/05/06 13:46:52;;;;;;;2.93;1.20;;;21.70;49.90;;;;;;20982241;28;20235;-64
2022/05/06 14:07:15;;;;;;;3.93;1.50;;;22.00;48.40;;;;;;20996742;28;20238;-65
2022/05/06 14:17:19;;;;;;;2.57;1.33;;;22.50;47.70;;;;;;20998119;28;20223;-66
2022/05/06 14:27:21;;;;;;;3.47;1.20;;;22.70;47.30;;;;;;20999656;28;20297;-65
2022/05/06 14:37:23;;;;;;;7.70;1.50;;;24.10;45.50;;;;;;20999171;28;20207;-68
2022/05/06 14:47:25;;;;;;;2.73;1.60;;;23.80;45.60;;;;;;20996253;28;20237;-64
2022/05/06 14:57:26;;;;;;;2.33;1.57;;;24.00;45.10;;;;;;20997155;28;20226;-67
2022/05/06 15:07:28;;;;;;;2.03;1.40;;;23.60;44.90;;;;;;21003071;28;20238;-64
2022/05/06 15:17:30;;;;;;;2.30;1.40;;;23.40;44.60;;;;;;21015302;28;20280;-66
2022/05/06 15:27:32;;;;;;;3.40;1.43;;;24.00;44.60;;;;;;20997867;28;20600;-68
2022/05/06 15:37:33;;;;;;;1.50;1.40;;;23.60;44.30;;;;;;21011428;28;20203;-62
2022/05/06 15:47:35;;;;;;;3.40;2.00;;;23.50;44.50;;;;;;20967012;28;20239;-68
2022/05/06 15:57:38;;;;;;;2.63;1.30;;;23.30;44.60;;;;;;20930685;28;20239;-68
2022/05/06 16:07:39;;;;;;;3.93;1.60;;;23.20;44.80;;;;;;20927499;28;20239;-68
2022/05/06 16:17:41;;;;;;;2.23;1.50;;;23.40;44.80;;;;;;20925192;28;20227;-68
2022/05/06 16:27:43;;;;;;;4.23;1.40;;;25.10;43.40;;;;;;20926084;28;20238;-70
2022/05/06 16:37:46;;;;;;;2.87;1.53;;;25.70;42.00;;;;;;20924708;28;20258;-71
2022/05/06 16:47:47;;;;;;;3.47;1.53;;;25.30;42.20;;;;;;20923940;28;20305;-65
2022/05/06 16:57:49;;;;;;;5.90;2.23;;;24.10;42.90;;;;;;20922862;28;20207;-65
2022/05/06 17:07:51;;;;;;;3.20;1.50;;;23.80;42.90;;;;;;20922239;28;20265;-64
2022/05/06 17:17:53;;;;;;;6.77;1.73;;;23.80;43.10;;;;;;20922020;28;20577;-68
2022/05/06 17:27:55;;;;;;;8.53;1.50;;;23.00;43.90;;;;;;20920499;28;20246;-71
2022/05/06 17:37:56;;;;;;;3.17;1.50;;;22.60;44.30;;;;;;20919007;28;20200;-63
2022/05/06 17:47:59;;;;;;;6.57;1.70;;;22.20;44.70;;;;;;20916295;28;20265;-69
2022/05/06 17:58:06;;;;;;;2.07;1.33;;;21.80;45.10;;;;;;20993693;28;20615;-68
2022/05/06 18:08:07;;;;;;;3.30;1.50;;;21.50;45.30;;;;;;21001538;28;20295;-64
2022/05/06 18:18:09;;;;;;;4.17;1.80;;;21.20;45.80;;;;;;20997782;28;20239;-65
2022/05/06 18:28:11;;;;;;;3.60;1.50;;;21.00;46.40;;;;;;20995245;28;20325;-69
2022/05/06 18:38:13;;;;;;;3.73;1.70;;;20.60;46.90;;;;;;20994836;28;20614;-70
2022/05/06 18:48:15;;;;;;;5.67;1.90;;;20.30;47.40;;;;;;20995357;28;20307;-71
2022/05/06 18:58:17;;;;;;;6.60;3.50;;;20.00;48.20;;;;;;20994872;28;20210;-67
2022/05/06 19:08:19;;;;;;;32.73;19.23;;;19.70;49.50;;;;;;20993988;28;20712;-66
2022/05/06 19:18:21;;;;;;;22.17;10.70;;;19.40;50.70;;;;;;20993413;28;20715;-63
2022/05/06 19:28:23;;;;;;;9.83;3.80;;;19.10;51.90;;;;;;20993543;28;20249;-71
2022/05/06 19:38:24;;;;;;;5.00;2.53;;;18.90;53.10;;;;;;21015433;28;20208;-63
2022/05/06 19:48:26;;;;;;;5.50;2.57;;;18.80;54.40;;;;;;20993615;28;20288;-65
2022/05/06 19:58:28;;;;;;;4.53;2.30;;;18.60;55.10;;;;;;21072123;28;20724;-65
2022/05/06 20:08:29;;;;;;;5.13;2.50;;;18.40;55.70;;;;;;21072619;28;20230;-66
2022/05/06 20:18:31;;;;;;;8.27;2.50;;;18.30;56.10;;;;;;21084177;28;20237;-67
2022/05/06 20:28:33;;;;;;;3.67;2.50;;;18.30;56.40;;;;;;21089334;28;20282;-63
2022/05/06 20:38:35;;;;;;;4.67;3.10;;;18.20;56.80;;;;;;21088738;28;20206;-63
2022/05/06 20:48:37;;;;;;;10.37;7.37;;;18.10;57.80;;;;;;21096820;28;20227;-70
2022/05/06 21:19:20;;;;;;;7.73;4.50;;;17.60;61.30;;;;;;21084945;28;20237;-71
2022/05/06 21:29:22;;;;;;;7.60;3.30;;;17.40;62.60;;;;;;21083658;28;20245;-64
2022/05/06 21:39:25;;;;;;;4.67;3.50;;;17.30;63.60;;;;;;21081617;28;20262;-64
2022/05/06 21:49:32;;;;;;;2.60;2.40;;;17.10;64.70;;;;;;20987809;28;20237;-63
2022/05/06 21:59:34;;;;;;;5.23;2.83;;;17.00;65.70;;;;;;20999948;28;20263;-63
2022/05/06 22:09:40;;;;;;;7.43;2.90;;;16.70;66.00;;;;;;20937600;28;20243;-61
2022/05/06 22:19:41;;;;;;;5.03;2.60;;;16.50;66.80;;;;;;20914866;28;20232;-66
2022/05/06 22:29:46;;;;;;;5.63;3.17;;;16.30;67.60;;;;;;20914954;28;20236;-64
2022/05/06 22:39:49;;;;;;;3.60;3.30;;;16.00;68.90;;;;;;20939363;28;20203;-64
2022/05/06 22:49:52;;;;;;;6.53;4.17;;;15.70;70.30;;;;;;20993519;28;20618;-65
2022/05/06 22:59:54;;;;;;;6.93;4.03;;;15.50;72.10;;;;;;20992697;28;20610;-63
2022/05/06 23:09:56;;;;;;;4.67;3.27;;;15.40;73.80;;;;;;20996750;28;20231;-63
2022/05/06 23:19:59;;;;;;;5.07;3.80;;;15.10;74.40;;;;;;20994824;28;20740;-66
2022/05/06 23:30:02;;;;;;;4.00;3.60;;;14.90;75.60;;;;;;20994569;28;20231;-63
2022/05/06 23:40:06;;;;;;;8.53;4.23;;;14.70;76.60;;;;;;20994640;28;20608;-63
2022/05/06 23:50:08;;;;;;;9.20;4.80;;;14.50;77.90;;;;;;20998932;28;20231;-62
